sensor_id;sensor_type;location;lat;lon;timestamp;P1;durP1;ratioP1;P2;durP2;ratioP2
37485;SDS011;23341;50.296;18.960;2023-04-24T00:02:15;13.52;;;8.52;;
37485;SDS011;23341;50.296;18.960;2023-04-24T00:07:21;13.48;;;8.40;;
37485;SDS011;23341;50.296;18.960;2023-04-24T00:12:26;9.07;;;6.95;;
37485;SDS011;23341;50.296;18.960;2023-04-24T00:17:30;9.25;;;6.22;;
37485;SDS011;23341;50.296;18.960;2023-04-24T00:22:36;10.13;;;5.78;;
37485;SDS011;23341;50.296;18.960;2023-04-24T00:27:41;11.43;;;5.90;;
37485;SDS011;23341;50.296;18.960;2023-04-24T00:32:45;6.75;;;5.20;;
37485;SDS011;23341;50.296;18.960;2023-04-24T00:37:52;11.90;;;5.78;;
37485;SDS011;23341;50.296;18.960;2023-04-24T00:42:56;7.60;;;5.80;;
37485;SDS011;23341;50.296;18.960;2023-04-24T00:48:00;7.85;;;5.57;;
37485;SDS011;23341;50.296;18.960;2023-04-24T00:53:07;7.85;;;6.68;;
37485;SDS011;23341;50.296;18.960;2023-04-24T00:58:11;8.93;;;6.45;;
37485;SDS011;23341;50.296;18.960;2023-04-24T01:03:17;7.97;;;6.80;;
37485;SDS011;23341;50.296;18.960;2023-04-24T01:08:24;11.30;;;8.23;;
37485;SDS011;23341;50.296;18.960;2023-04-24T01:13:31;10.13;;;8.63;;
37485;SDS011;23341;50.296;18.960;2023-04-24T01:18:37;12.32;;;8.77;;
37485;SDS011;23341;50.296;18.960;2023-04-24T01:23:43;12.45;;;9.35;;
37485;SDS011;23341;50.296;18.960;2023-04-24T01:28:48;16.65;;;9.73;;
37485;SDS011;23341;50.296;18.960;2023-04-24T01:33:52;17.70;;;9.95;;
37485;SDS011;23341;50.296;18.960;2023-04-24T01:38:59;10.48;;;7.78;;
37485;SDS011;23341;50.296;18.960;2023-04-24T01:44:03;15.75;;;10.10;;
37485;SDS011;23341;50.296;18.960;2023-04-24T01:49:07;17.20;;;10.45;;
37485;SDS011;23341;50.296;18.960;2023-04-24T01:54:14;14.52;;;10.60;;
37485;SDS011;23341;50.296;18.960;2023-04-24T01:59:18;16.02;;;9.32;;
37485;SDS011;23341;50.296;18.960;2023-04-24T02:04:25;16.33;;;9.85;;
37485;SDS011;23341;50.296;18.960;2023-04-24T02:09:31;12.13;;;9.82;;
37485;SDS011;23341;50.296;18.960;2023-04-24T02:14:35;10.10;;;8.30;;
37485;SDS011;23341;50.296;18.960;2023-04-24T02:19:40;14.82;;;8.73;;
37485;SDS011;23341;50.296;18.960;2023-04-24T02:24:46;10.13;;;7.80;;
37485;SDS011;23341;50.296;18.960;2023-04-24T02:29:51;12.90;;;8.10;;
37485;SDS011;23341;50.296;18.960;2023-04-24T02:34:55;11.30;;;7.13;;
37485;SDS011;23341;50.296;18.960;2023-04-24T02:40:01;12.63;;;7.18;;
37485;SDS011;23341;50.296;18.960;2023-04-24T02:45:06;15.05;;;8.38;;
37485;SDS011;23341;50.296;18.960;2023-04-24T02:50:11;9.63;;;7.15;;
37485;SDS011;23341;50.296;18.960;2023-04-24T02:55:18;13.57;;;7.03;;
37485;SDS011;23341;50.296;18.960;2023-04-24T03:00:22;13.05;;;7.60;;
37485;SDS011;23341;50.296;18.960;2023-04-24T03:05:26;10.57;;;7.80;;
37485;SDS011;23341;50.296;18.960;2023-04-24T03:10:32;9.48;;;7.13;;
37485;SDS011;23341;50.296;18.960;2023-04-24T03:15:37;8.57;;;6.82;;
37485;SDS011;23341;50.296;18.960;2023-04-24T03:20:41;11.60;;;7.63;;
37485;SDS011;23341;50.296;18.960;2023-04-24T03:25:47;11.95;;;7.07;;
37485;SDS011;23341;50.296;18.960;2023-04-24T03:30:54;10.02;;;7.35;;
37485;SDS011;23341;50.296;18.960;2023-04-24T03:36:00;9.38;;;6.65;;
37485;SDS011;23341;50.296;18.960;2023-04-24T03:41:16;8.75;;;6.18;;
37485;SDS011;23341;50.296;18.960;2023-04-24T03:46:26;14.57;;;8.27;;
37485;SDS011;23341;50.296;18.960;2023-04-24T03:51:33;11.32;;;6.57;;
37485;SDS011;23341;50.296;18.960;2023-04-24T03:56:51;12.10;;;6.07;;
37485;SDS011;23341;50.296;18.960;2023-04-24T04:01:55;9.00;;;5.97;;
37485;SDS011;23341;50.296;18.960;2023-04-24T04:07:00;8.65;;;6.50;;
37485;SDS011;23341;50.296;18.960;2023-04-24T04:12:07;6.78;;;6.00;;
37485;SDS011;23341;50.296;18.960;2023-04-24T04:17:13;7.78;;;5.90;;
37485;SDS011;23341;50.296;18.960;2023-04-24T04:22:17;6.00;;;5.38;;
37485;SDS011;23341;50.296;18.960;2023-04-24T04:27:26;7.75;;;5.50;;
37485;SDS011;23341;50.296;18.960;2023-04-24T04:32:37;9.77;;;6.25;;
37485;SDS011;23341;50.296;18.960;2023-04-24T04:37:41;10.98;;;5.93;;
37485;SDS011;23341;50.296;18.960;2023-04-24T04:43:06;11.73;;;6.30;;
37485;SDS011;23341;50.296;18.960;2023-04-24T04:48:17;7.80;;;5.97;;
37485;SDS011;23341;50.296;18.960;2023-04-24T04:53:22;10.05;;;5.65;;
37485;SDS011;23341;50.296;18.960;2023-04-24T04:58:27;9.63;;;5.22;;
37485;SDS011;23341;50.296;18.960;2023-04-24T05:03:34;8.68;;;5.28;;
37485;SDS011;23341;50.296;18.960;2023-04-24T05:08:43;11.63;;;5.70;;
37485;SDS011;23341;50.296;18.960;2023-04-24T05:14:08;12.98;;;4.93;;
37485;SDS011;23341;50.296;18.960;2023-04-24T05:19:14;6.60;;;5.05;;
37485;SDS011;23341;50.296;18.960;2023-04-24T05:24:20;7.13;;;4.72;;
37485;SDS011;23341;50.296;18.960;2023-04-24T05:29:40;11.05;;;5.85;;
37485;SDS011;23341;50.296;18.960;2023-04-24T05:34:45;8.15;;;5.13;;
37485;SDS011;23341;50.296;18.960;2023-04-24T05:39:49;8.02;;;5.38;;
37485;SDS011;23341;50.296;18.960;2023-04-24T05:44:55;9.48;;;5.43;;
37485;SDS011;23341;50.296;18.960;2023-04-24T05:50:01;14.75;;;6.22;;
37485;SDS011;23341;50.296;18.960;2023-04-24T05:55:06;7.35;;;5.28;;
37485;SDS011;23341;50.296;18.960;2023-04-24T06:00:15;8.30;;;5.38;;
37485;SDS011;23341;50.296;18.960;2023-04-24T06:05:26;5.65;;;4.90;;
37485;SDS011;23341;50.296;18.960;2023-04-24T06:10:30;10.40;;;6.30;;
37485;SDS011;23341;50.296;18.960;2023-04-24T06:15:37;11.85;;;5.10;;
37485;SDS011;23341;50.296;18.960;2023-04-24T06:20:44;14.55;;;5.22;;
37485;SDS011;23341;50.296;18.960;2023-04-24T06:25:49;10.90;;;6.43;;
37485;SDS011;23341;50.296;18.960;2023-04-24T06:30:55;15.75;;;7.40;;
37485;SDS011;23341;50.296;18.960;2023-04-24T06:35:59;7.00;;;5.25;;
37485;SDS011;23341;50.296;18.960;2023-04-24T06:41:04;10.48;;;4.10;;
37485;SDS011;23341;50.296;18.960;2023-04-24T06:46:10;5.75;;;3.83;;
37485;SDS011;23341;50.296;18.960;2023-04-24T06:51:14;7.47;;;3.53;;
37485;SDS011;23341;50.296;18.960;2023-04-24T06:56:20;5.03;;;4.25;;
37485;SDS011;23341;50.296;18.960;2023-04-24T07:01:25;4.43;;;3.70;;
37485;SDS011;23341;50.296;18.960;2023-04-24T07:06:30;8.98;;;4.38;;
37485;SDS011;23341;50.296;18.960;2023-04-24T07:11:35;6.38;;;3.90;;
37485;SDS011;23341;50.296;18.960;2023-04-24T07:16:43;4.00;;;3.60;;
37485;SDS011;23341;50.296;18.960;2023-04-24T07:21:47;3.95;;;3.22;;
37485;SDS011;23341;50.296;18.960;2023-04-24T07:26:52;9.40;;;3.67;;
37485;SDS011;23341;50.296;18.960;2023-04-24T07:31:59;6.20;;;4.00;;
37485;SDS011;23341;50.296;18.960;2023-04-24T07:37:05;4.30;;;3.88;;
37485;SDS011;23341;50.296;18.960;2023-04-24T07:42:09;4.22;;;3.63;;
37485;SDS011;23341;50.296;18.960;2023-04-24T07:47:15;4.35;;;3.50;;
37485;SDS011;23341;50.296;18.960;2023-04-24T07:52:20;5.57;;;3.70;;
37485;SDS011;23341;50.296;18.960;2023-04-24T07:57:24;4.10;;;3.63;;
37485;SDS011;23341;50.296;18.960;2023-04-24T08:02:30;4.55;;;3.45;;
37485;SDS011;23341;50.296;18.960;2023-04-24T08:07:35;4.70;;;3.20;;
37485;SDS011;23341;50.296;18.960;2023-04-24T08:12:41;4.43;;;2.88;;
37485;SDS011;23341;50.296;18.960;2023-04-24T08:17:47;6.22;;;3.22;;
37485;SDS011;23341;50.296;18.960;2023-04-24T08:22:52;6.60;;;4.32;;
37485;SDS011;23341;50.296;18.960;2023-04-24T08:28:02;3.22;;;2.92;;
37485;SDS011;23341;50.296;18.960;2023-04-24T08:33:08;3.83;;;3.10;;
37485;SDS011;23341;50.296;18.960;2023-04-24T08:38:13;3.42;;;2.85;;
37485;SDS011;23341;50.296;18.960;2023-04-24T08:43:17;4.75;;;3.05;;
37485;SDS011;23341;50.296;18.960;2023-04-24T08:48:23;5.63;;;3.28;;
37485;SDS011;23341;50.296;18.960;2023-04-24T08:53:33;4.50;;;3.38;;
37485;SDS011;23341;50.296;18.960;2023-04-24T08:58:38;3.25;;;2.90;;
37485;SDS011;23341;50.296;18.960;2023-04-24T09:03:44;4.88;;;2.80;;
37485;SDS011;23341;50.296;18.960;2023-04-24T09:08:50;3.10;;;2.80;;
37485;SDS011;23341;50.296;18.960;2023-04-24T09:13:58;5.22;;;3.40;;
37485;SDS011;23341;50.296;18.960;2023-04-24T09:19:06;7.40;;;3.92;;
37485;SDS011;23341;50.296;18.960;2023-04-24T09:24:14;5.55;;;3.20;;
37485;SDS011;23341;50.296;18.960;2023-04-24T09:29:20;6.35;;;3.58;;
37485;SDS011;23341;50.296;18.960;2023-04-24T09:34:26;5.65;;;3.38;;
37485;SDS011;23341;50.296;18.960;2023-04-24T09:39:31;3.58;;;3.20;;
37485;SDS011;23341;50.296;18.960;2023-04-24T09:44:35;3.60;;;3.30;;
37485;SDS011;23341;50.296;18.960;2023-04-24T09:49:41;3.45;;;2.95;;
37485;SDS011;23341;50.296;18.960;2023-04-24T09:54:50;4.10;;;3.63;;
37485;SDS011;23341;50.296;18.960;2023-04-24T09:59:56;4.93;;;3.30;;
37485;SDS011;23341;50.296;18.960;2023-04-24T10:05:02;4.95;;;3.65;;
37485;SDS011;23341;50.296;18.960;2023-04-24T10:10:08;5.28;;;4.15;;
37485;SDS011;23341;50.296;18.960;2023-04-24T10:15:13;5.53;;;4.10;;
37485;SDS011;23341;50.296;18.960;2023-04-24T10:20:22;5.20;;;3.63;;
37485;SDS011;23341;50.296;18.960;2023-04-24T10:25:28;5.28;;;3.50;;
37485;SDS011;23341;50.296;18.960;2023-04-24T10:30:34;5.45;;;2.85;;
37485;SDS011;23341;50.296;18.960;2023-04-24T10:35:41;4.88;;;3.92;;
37485;SDS011;23341;50.296;18.960;2023-04-24T10:40:50;7.03;;;3.58;;
37485;SDS011;23341;50.296;18.960;2023-04-24T10:46:01;23.58;;;14.85;;
37485;SDS011;23341;50.296;18.960;2023-04-24T10:51:10;7.22;;;4.10;;
37485;SDS011;23341;50.296;18.960;2023-04-24T10:56:16;8.77;;;3.90;;
37485;SDS011;23341;50.296;18.960;2023-04-24T11:01:24;5.32;;;3.67;;
37485;SDS011;23341;50.296;18.960;2023-04-24T11:06:31;6.07;;;3.80;;
37485;SDS011;23341;50.296;18.960;2023-04-24T11:11:38;7.57;;;3.85;;
37485;SDS011;23341;50.296;18.960;2023-04-24T11:16:51;12.75;;;3.38;;
37485;SDS011;23341;50.296;18.960;2023-04-24T11:22:00;7.57;;;3.70;;
37485;SDS011;23341;50.296;18.960;2023-04-24T11:27:06;5.55;;;4.65;;
37485;SDS011;23341;50.296;18.960;2023-04-24T11:32:17;9.07;;;4.32;;
37485;SDS011;23341;50.296;18.960;2023-04-24T11:37:25;5.88;;;3.60;;
37485;SDS011;23341;50.296;18.960;2023-04-24T11:42:33;5.28;;;3.67;;
37485;SDS011;23341;50.296;18.960;2023-04-24T11:47:39;5.53;;;4.20;;
37485;SDS011;23341;50.296;18.960;2023-04-24T11:52:46;8.70;;;3.60;;
37485;SDS011;23341;50.296;18.960;2023-04-24T11:57:52;9.02;;;3.88;;
37485;SDS011;23341;50.296;18.960;2023-04-24T12:03:03;6.13;;;4.00;;
37485;SDS011;23341;50.296;18.960;2023-04-24T12:08:11;10.32;;;5.07;;
37485;SDS011;23341;50.296;18.960;2023-04-24T12:13:15;4.80;;;4.40;;
37485;SDS011;23341;50.296;18.960;2023-04-24T12:18:21;4.40;;;4.00;;
37485;SDS011;23341;50.296;18.960;2023-04-24T12:23:36;7.10;;;4.28;;
37485;SDS011;23341;50.296;18.960;2023-04-24T12:28:41;6.35;;;4.47;;
37485;SDS011;23341;50.296;18.960;2023-04-24T12:33:46;5.88;;;4.85;;
37485;SDS011;23341;50.296;18.960;2023-04-24T12:38:53;5.97;;;4.53;;
37485;SDS011;23341;50.296;18.960;2023-04-24T12:43:58;4.63;;;3.90;;
37485;SDS011;23341;50.296;18.960;2023-04-24T12:49:02;6.10;;;4.22;;
37485;SDS011;23341;50.296;18.960;2023-04-24T12:54:08;5.05;;;4.20;;
37485;SDS011;23341;50.296;18.960;2023-04-24T12:59:16;10.27;;;4.45;;
37485;SDS011;23341;50.296;18.960;2023-04-24T13:04:20;5.25;;;3.90;;
37485;SDS011;23341;50.296;18.960;2023-04-24T13:09:26;3.35;;;3.05;;
37485;SDS011;23341;50.296;18.960;2023-04-24T13:14:30;5.03;;;2.97;;
37485;SDS011;23341;50.296;18.960;2023-04-24T13:19:35;6.88;;;3.22;;
37485;SDS011;23341;50.296;18.960;2023-04-24T13:24:42;3.90;;;3.03;;
37485;SDS011;23341;50.296;18.960;2023-04-24T13:29:46;3.70;;;3.08;;
37485;SDS011;23341;50.296;18.960;2023-04-24T13:34:50;3.65;;;2.53;;
37485;SDS011;23341;50.296;18.960;2023-04-24T13:39:56;3.88;;;3.50;;
37485;SDS011;23341;50.296;18.960;2023-04-24T13:45:00;2.70;;;2.50;;
37485;SDS011;23341;50.296;18.960;2023-04-24T13:50:25;4.07;;;3.00;;
37485;SDS011;23341;50.296;18.960;2023-04-24T13:55:31;3.63;;;3.28;;
37485;SDS011;23341;50.296;18.960;2023-04-24T14:00:35;7.30;;;3.88;;
37485;SDS011;23341;50.296;18.960;2023-04-24T14:05:40;6.22;;;4.80;;
37485;SDS011;23341;50.296;18.960;2023-04-24T14:10:46;5.15;;;4.53;;
37485;SDS011;23341;50.296;18.960;2023-04-24T14:15:51;6.43;;;5.82;;
37485;SDS011;23341;50.296;18.960;2023-04-24T14:20:56;6.03;;;4.95;;
37485;SDS011;23341;50.296;18.960;2023-04-24T14:26:02;6.40;;;5.80;;
37485;SDS011;23341;50.296;18.960;2023-04-24T14:31:06;13.02;;;6.82;;
37485;SDS011;23341;50.296;18.960;2023-04-24T14:36:11;7.50;;;6.13;;
37485;SDS011;23341;50.296;18.960;2023-04-24T14:41:17;5.07;;;4.57;;
37485;SDS011;23341;50.296;18.960;2023-04-24T14:46:22;7.30;;;5.15;;
37485;SDS011;23341;50.296;18.960;2023-04-24T14:51:27;4.55;;;4.10;;
37485;SDS011;23341;50.296;18.960;2023-04-24T14:56:34;4.90;;;4.40;;
37485;SDS011;23341;50.296;18.960;2023-04-24T15:01:38;6.10;;;4.75;;
37485;SDS011;23341;50.296;18.960;2023-04-24T15:06:43;5.60;;;4.97;;
37485;SDS011;23341;50.296;18.960;2023-04-24T15:11:49;5.13;;;3.95;;
37485;SDS011;23341;50.296;18.960;2023-04-24T15:16:53;4.50;;;4.10;;
37485;SDS011;23341;50.296;18.960;2023-04-24T15:21:58;7.00;;;5.28;;
37485;SDS011;23341;50.296;18.960;2023-04-24T15:27:04;4.35;;;3.63;;
37485;SDS011;23341;50.296;18.960;2023-04-24T15:32:08;5.30;;;4.80;;
37485;SDS011;23341;50.296;18.960;2023-04-24T15:37:12;8.38;;;3.78;;
37485;SDS011;23341;50.296;18.960;2023-04-24T15:42:19;5.15;;;4.10;;
37485;SDS011;23341;50.296;18.960;2023-04-24T15:47:24;5.45;;;3.67;;
37485;SDS011;23341;50.296;18.960;2023-04-24T15:52:28;4.43;;;4.03;;
37485;SDS011;23341;50.296;18.960;2023-04-24T15:57:34;6.85;;;4.60;;
37485;SDS011;23341;50.296;18.960;2023-04-24T16:02:39;4.50;;;3.78;;
37485;SDS011;23341;50.296;18.960;2023-04-24T16:07:43;4.50;;;3.97;;
37485;SDS011;23341;50.296;18.960;2023-04-24T16:12:49;5.93;;;4.00;;
37485;SDS011;23341;50.296;18.960;2023-04-24T16:17:55;4.03;;;3.63;;
37485;SDS011;23341;50.296;18.960;2023-04-24T16:23:00;5.20;;;4.20;;
37485;SDS011;23341;50.296;18.960;2023-04-24T16:28:06;6.05;;;4.53;;
37485;SDS011;23341;50.296;18.960;2023-04-24T16:33:10;5.75;;;4.93;;
37485;SDS011;23341;50.296;18.960;2023-04-24T16:38:15;7.55;;;5.60;;
37485;SDS011;23341;50.296;18.960;2023-04-24T16:43:21;5.80;;;4.80;;
37485;SDS011;23341;50.296;18.960;2023-04-24T16:48:25;6.65;;;5.38;;
37485;SDS011;23341;50.296;18.960;2023-04-24T16:53:29;5.97;;;5.47;;
37485;SDS011;23341;50.296;18.960;2023-04-24T16:58:35;7.75;;;5.50;;
37485;SDS011;23341;50.296;18.960;2023-04-24T17:03:40;9.82;;;6.82;;
37485;SDS011;23341;50.296;18.960;2023-04-24T17:08:44;10.77;;;8.95;;
37485;SDS011;23341;50.296;18.960;2023-04-24T17:13:51;12.77;;;7.25;;
37485;SDS011;23341;50.296;18.960;2023-04-24T17:18:55;11.20;;;10.05;;
37485;SDS011;23341;50.296;18.960;2023-04-24T17:23:59;13.43;;;11.75;;
37485;SDS011;23341;50.296;18.960;2023-04-24T17:29:05;9.07;;;8.10;;
37485;SDS011;23341;50.296;18.960;2023-04-24T17:34:10;9.85;;;8.88;;
37485;SDS011;23341;50.296;18.960;2023-04-24T17:39:14;12.85;;;10.88;;
37485;SDS011;23341;50.296;18.960;2023-04-24T17:44:20;11.20;;;10.00;;
37485;SDS011;23341;50.296;18.960;2023-04-24T17:49:24;11.70;;;10.52;;
37485;SDS011;23341;50.296;18.960;2023-04-24T17:54:29;15.25;;;11.98;;
37485;SDS011;23341;50.296;18.960;2023-04-24T17:59:34;14.75;;;10.20;;
37485;SDS011;23341;50.296;18.960;2023-04-24T18:04:39;13.55;;;10.18;;
37485;SDS011;23341;50.296;18.960;2023-04-24T18:09:45;13.00;;;9.65;;
37485;SDS011;23341;50.296;18.960;2023-04-24T18:14:50;14.68;;;10.10;;
37485;SDS011;23341;50.296;18.960;2023-04-24T18:20:14;10.15;;;8.20;;
37485;SDS011;23341;50.296;18.960;2023-04-24T18:25:21;13.32;;;9.32;;
37485;SDS011;23341;50.296;18.960;2023-04-24T18:30:30;12.48;;;9.52;;
37485;SDS011;23341;50.296;18.960;2023-04-24T18:35:36;15.45;;;10.82;;
37485;SDS011;23341;50.296;18.960;2023-04-24T18:40:41;16.33;;;12.43;;
37485;SDS011;23341;50.296;18.960;2023-04-24T18:45:46;15.13;;;12.10;;
37485;SDS011;23341;50.296;18.960;2023-04-24T18:50:51;18.20;;;13.73;;
37485;SDS011;23341;50.296;18.960;2023-04-24T18:55:55;14.50;;;12.80;;
37485;SDS011;23341;50.296;18.960;2023-04-24T19:01:01;19.00;;;14.45;;
37485;SDS011;23341;50.296;18.960;2023-04-24T19:06:09;26.17;;;17.10;;
37485;SDS011;23341;50.296;18.960;2023-04-24T19:11:13;31.63;;;19.48;;
37485;SDS011;23341;50.296;18.960;2023-04-24T19:16:19;39.05;;;26.80;;
37485;SDS011;23341;50.296;18.960;2023-04-24T19:21:23;75.50;;;60.47;;
37485;SDS011;23341;50.296;18.960;2023-04-24T19:26:27;38.58;;;25.23;;
37485;SDS011;23341;50.296;18.960;2023-04-24T19:31:34;32.92;;;21.58;;
37485;SDS011;23341;50.296;18.960;2023-04-24T19:36:38;29.48;;;21.08;;
37485;SDS011;23341;50.296;18.960;2023-04-24T19:41:43;26.83;;;20.52;;
37485;SDS011;23341;50.296;18.960;2023-04-24T19:46:49;29.02;;;21.30;;
37485;SDS011;23341;50.296;18.960;2023-04-24T19:51:53;26.70;;;21.00;;
37485;SDS011;23341;50.296;18.960;2023-04-24T19:56:58;30.38;;;24.70;;
37485;SDS011;23341;50.296;18.960;2023-04-24T20:02:04;27.88;;;23.77;;
37485;SDS011;23341;50.296;18.960;2023-04-24T20:07:09;38.25;;;25.48;;
37485;SDS011;23341;50.296;18.960;2023-04-24T20:12:13;34.08;;;25.60;;
37485;SDS011;23341;50.296;18.960;2023-04-24T20:17:19;41.05;;;27.75;;
37485;SDS011;23341;50.296;18.960;2023-04-24T20:22:24;41.50;;;29.95;;
37485;SDS011;23341;50.296;18.960;2023-04-24T20:27:28;45.10;;;33.45;;
37485;SDS011;23341;50.296;18.960;2023-04-24T20:32:37;43.22;;;32.45;;
37485;SDS011;23341;50.296;18.960;2023-04-24T20:37:42;45.78;;;33.90;;
37485;SDS011;23341;50.296;18.960;2023-04-24T20:42:46;40.33;;;30.45;;
37485;SDS011;23341;50.296;18.960;2023-04-24T20:47:52;40.10;;;31.52;;
37485;SDS011;23341;50.296;18.960;2023-04-24T20:52:56;40.72;;;31.13;;
37485;SDS011;23341;50.296;18.960;2023-04-24T20:58:01;44.45;;;34.65;;
37485;SDS011;23341;50.296;18.960;2023-04-24T21:03:07;40.50;;;32.40;;
37485;SDS011;23341;50.296;18.960;2023-04-24T21:08:11;37.53;;;29.98;;
37485;SDS011;23341;50.296;18.960;2023-04-24T21:13:16;35.33;;;27.42;;
37485;SDS011;23341;50.296;18.960;2023-04-24T21:18:22;38.15;;;31.45;;
37485;SDS011;23341;50.296;18.960;2023-04-24T21:23:27;26.83;;;21.75;;
37485;SDS011;23341;50.296;18.960;2023-04-24T21:28:32;24.13;;;21.33;;
37485;SDS011;23341;50.296;18.960;2023-04-24T21:33:38;21.65;;;17.40;;
37485;SDS011;23341;50.296;18.960;2023-04-24T21:38:42;13.13;;;11.65;;
37485;SDS011;23341;50.296;18.960;2023-04-24T21:43:47;8.15;;;7.38;;
37485;SDS011;23341;50.296;18.960;2023-04-24T21:48:53;7.15;;;5.90;;
37485;SDS011;23341;50.296;18.960;2023-04-24T21:53:57;4.97;;;4.43;;
37485;SDS011;23341;50.296;18.960;2023-04-24T21:59:02;5.50;;;4.43;;
37485;SDS011;23341;50.296;18.960;2023-04-24T22:04:08;4.97;;;3.38;;
37485;SDS011;23341;50.296;18.960;2023-04-24T22:09:13;5.40;;;4.90;;
37485;SDS011;23341;50.296;18.960;2023-04-24T22:14:17;4.78;;;3.78;;
37485;SDS011;23341;50.296;18.960;2023-04-24T22:19:23;4.05;;;3.65;;
37485;SDS011;23341;50.296;18.960;2023-04-24T22:24:29;5.13;;;4.15;;
37485;SDS011;23341;50.296;18.960;2023-04-24T22:29:33;4.15;;;3.70;;
37485;SDS011;23341;50.296;18.960;2023-04-24T22:34:39;5.00;;;4.60;;
37485;SDS011;23341;50.296;18.960;2023-04-24T22:39:44;7.45;;;6.63;;
37485;SDS011;23341;50.296;18.960;2023-04-24T22:44:48;6.10;;;5.38;;
37485;SDS011;23341;50.296;18.960;2023-04-24T22:49:54;6.72;;;6.10;;
37485;SDS011;23341;50.296;18.960;2023-04-24T22:54:59;8.73;;;7.55;;
37485;SDS011;23341;50.296;18.960;2023-04-24T23:00:04;13.65;;;10.10;;
37485;SDS011;23341;50.296;18.960;2023-04-24T23:05:14;15.75;;;12.65;;
37485;SDS011;23341;50.296;18.960;2023-04-24T23:10:18;14.23;;;10.88;;
37485;SDS011;23341;50.296;18.960;2023-04-24T23:15:23;13.32;;;10.52;;
37485;SDS011;23341;50.296;18.960;2023-04-24T23:20:29;15.50;;;10.68;;
37485;SDS011;23341;50.296;18.960;2023-04-24T23:25:33;14.05;;;10.82;;
37485;SDS011;23341;50.296;18.960;2023-04-24T23:30:38;8.63;;;7.80;;
37485;SDS011;23341;50.296;18.960;2023-04-24T23:35:44;7.20;;;6.50;;
37485;SDS011;23341;50.296;18.960;2023-04-24T23:40:49;8.50;;;6.45;;
37485;SDS011;23341;50.296;18.960;2023-04-24T23:45:53;8.60;;;7.85;;
37485;SDS011;23341;50.296;18.960;2023-04-24T23:50:59;14.75;;;10.90;;
37485;SDS011;23341;50.296;18.960;2023-04-24T23:56:04;17.90;;;12.65;;
